Time;durP1;ratioP1;P1;durP2;ratioP2;P2;SDS_P1;SDS_P2;PMS_P1;PMS_P2;Temp;Humidity;BMP_temperature;BMP_pressure;BME280_temperature;BME280_humidity;BME280_pressure;Samples;Min_cycle;Max_cycle;Signal;HPM_P1;HPM_P2
2022/10/14 00:00:36;;;;;;;25.30;9.60;;;;;;;4.90;78.65;101835.14;1842940;78;21068;-51
2022/10/14 00:03:05;;;;;;;19.32;10.20;;;;;;;4.86;79.10;101838.17;1842725;78;21487;-52
2022/10/14 00:05:34;;;;;;;25.82;9.98;;;;;;;4.82;79.18;101841.20;1842895;78;21059;-50
2022/10/14 00:08:02;;;;;;;20.68;9.10;;;;;;;4.81;79.18;101837.28;1842727;78;21076;-49
2022/10/14 00:10:31;;;;;;;18.07;8.43;;;;;;;4.80;79.41;101839.47;1812574;79;21082;-48
2022/10/14 00:13:00;;;;;;;19.23;9.03;;;;;;;4.79;79.36;101832.50;1801546;79;21249;-49
2022/10/14 00:15:29;;;;;;;20.10;8.55;;;;;;;4.75;79.25;101831.62;1798675;80;21156;-50
2022/10/14 00:17:57;;;;;;;17.15;9.13;;;;;;;4.74;79.31;101834.22;1798744;80;21109;-51
2022/10/14 00:20:28;;;;;;;21.75;9.13;;;;;;;4.72;79.19;101829.44;1824414;78;21091;-50
2022/10/14 00:22:56;;;;;;;16.52;9.10;;;;;;;4.69;79.21;101829.45;1828306;78;21052;-49
2022/10/14 00:25:25;;;;;;;13.88;8.38;;;;;;;4.67;79.35;101833.35;1828183;78;21073;-48
2022/10/14 00:27:54;;;;;;;17.65;7.80;;;;;;;4.65;79.22;101828.56;1828380;78;21127;-48
2022/10/14 00:30:23;;;;;;;19.92;9.15;;;;;;;4.62;79.20;101833.33;1828481;78;21057;-51
2022/10/14 00:32:52;;;;;;;15.83;7.62;;;;;;;4.60;79.40;101835.05;1828112;77;21076;-59
2022/10/14 00:35:20;;;;;;;25.32;9.48;;;;;;;4.57;79.41;101831.56;1828442;78;21052;-55
2022/10/14 00:37:49;;;;;;;19.10;7.53;;;;;;;4.51;79.74;101828.50;1828350;78;21088;-57
2022/10/14 00:40:18;;;;;;;18.12;8.10;;;;;;;4.45;79.99;101829.36;1828447;77;21091;-55
2022/10/14 00:42:47;;;;;;;18.95;8.10;;;;;;;4.39;80.44;101828.45;1828225;78;21056;-56
2022/10/14 00:45:22;;;;;;;29.25;9.80;;;;;;;4.31;81.08;101830.17;1828268;78;21070;-57
2022/10/14 00:47:52;;;;;;;13.65;7.33;;;;;;;4.27;81.37;101833.63;1828251;77;21066;-57
2022/10/14 00:50:21;;;;;;;29.75;10.95;;;;;;;4.25;81.19;101829.27;1828389;78;21113;-53
2022/10/14 00:52:52;;;;;;;12.55;7.62;;;;;;;4.26;80.99;101827.56;1828150;77;21518;-57
2022/10/14 00:55:21;;;;;;;15.00;7.75;;;;;;;4.24;81.54;101827.55;1828295;78;21096;-50
2022/10/14 00:57:50;;;;;;;20.90;9.80;;;;;;;4.23;81.92;101828.39;1828300;78;21135;-54
2022/10/14 01:00:20;;;;;;;29.32;11.48;;;;;;;4.17;82.30;101832.28;1828268;78;21112;-51
2022/10/14 01:02:49;;;;;;;14.70;8.60;;;;;;;4.14;82.52;101828.35;1828192;78;21508;-57
2022/10/14 01:05:20;;;;;;;22.35;6.42;;;;;;;4.09;83.02;101827.45;1828298;78;21036;-57
2022/10/14 01:08:10;;;;;;;20.80;7.40;;;;;;;4.09;83.04;101826.59;1819522;78;21054;-56
2022/10/14 01:11:06;;;;;;;14.60;8.43;;;;;;;4.10;82.49;101831.81;1796907;80;21513;-52
2022/10/14 01:13:44;;;;;;;12.03;6.17;;;;;;;4.11;82.16;101834.84;1808258;78;21177;-53
2022/10/14 01:16:24;;;;;;;16.50;8.43;;;;;;;4.10;81.92;101837.03;1837085;78;21499;-54
2022/10/14 01:18:59;;;;;;;16.77;7.47;;;;;;;4.09;82.10;101835.27;1839514;78;21527;-51
2022/10/14 01:21:34;;;;;;;18.15;7.20;;;;;;;4.06;82.50;101841.79;1842961;78;21103;-55
2022/10/14 01:24:20;;;;;;;22.50;8.78;;;;;;;4.03;82.65;101841.77;1842909;78;21598;-55
2022/10/14 01:27:14;;;;;;;10.90;5.85;;;;;;;3.99;82.91;101838.70;1842060;78;21134;-52
2022/10/14 01:30:03;;;;;;;16.05;8.68;;;;;;;3.99;82.67;101841.31;1842851;78;21104;-52
2022/10/14 01:32:34;;;;;;;22.40;7.25;;;;;;;3.97;82.21;101836.53;1842201;78;21210;-54
2022/10/14 01:35:22;;;;;;;17.50;9.90;;;;;;;3.96;82.48;101830.86;1842570;78;21131;-56
2022/10/14 01:37:57;;;;;;;14.85;8.93;;;;;;;3.95;82.67;101826.09;1842812;78;21573;-58
2022/10/14 01:40:28;;;;;;;13.20;6.92;;;;;;;3.95;82.60;101829.13;1841586;78;21160;-57
2022/10/14 01:43:01;;;;;;;17.98;7.67;;;;;;;3.95;82.54;101833.05;1841601;78;21029;-58
2022/10/14 01:45:32;;;;;;;16.77;7.83;;;;;;;3.93;82.58;101826.92;1842797;78;21060;-58
2022/10/14 01:48:03;;;;;;;17.07;8.95;;;;;;;3.89;82.44;101830.37;1842852;78;21421;-58
2022/10/14 01:50:34;;;;;;;18.57;8.63;;;;;;;3.81;82.80;101832.95;1842948;78;21100;-56
2022/10/14 01:53:08;;;;;;;13.95;8.25;;;;;;;3.71;83.24;101835.03;1842886;78;21165;-58
2022/10/14 01:55:40;;;;;;;15.58;7.95;;;;;;;3.65;83.31;101832.85;1840198;77;21154;-58
2022/10/14 01:58:10;;;;;;;13.98;7.58;;;;;;;3.61;83.37;101831.50;1836174;78;21138;-58
2022/10/14 02:00:39;;;;;;;9.53;6.20;;;;;;;3.63;83.15;101828.06;1832430;78;21124;-60
2022/10/14 02:03:11;;;;;;;12.75;5.87;;;;;;;3.65;83.14;101833.26;1839496;78;21051;-57
2022/10/14 02:05:49;;;;;;;15.35;6.90;;;;;;;3.67;83.35;101825.91;1842746;78;21092;-56
2022/10/14 02:08:37;;;;;;;16.75;6.20;;;;;;;3.67;83.17;101833.73;1843005;78;21029;-56
2022/10/14 02:11:15;;;;;;;20.45;8.25;;;;;;;3.67;82.80;101822.41;1842813;78;21053;-52
2022/10/14 02:14:03;;;;;;;15.72;7.72;;;;;;;3.64;82.95;101823.72;1831965;78;21085;-56
2022/10/14 02:16:47;;;;;;;10.35;5.10;;;;;;;3.59;83.03;101822.80;1809205;79;21033;-54
2022/10/14 02:19:31;;;;;;;17.20;7.03;;;;;;;3.56;82.95;101822.77;1822578;77;21054;-56
2022/10/14 02:22:08;;;;;;;11.68;6.60;;;;;;;3.54;82.77;101816.28;1822206;78;21062;-53
2022/10/14 02:24:43;;;;;;;17.23;7.60;;;;;;;3.55;82.49;101813.23;1822169;78;21094;-57
2022/10/14 02:27:17;;;;;;;9.60;5.25;;;;;;;3.54;82.40;101816.28;1822687;78;21189;-54
2022/10/14 02:29:47;;;;;;;13.72;7.60;;;;;;;3.51;82.61;101816.69;1822456;77;21561;-50
2022/10/14 02:32:19;;;;;;;15.23;8.13;;;;;;;3.48;82.77;101819.68;1822533;79;21047;-56
2022/10/14 02:34:52;;;;;;;8.90;5.60;;;;;;;3.43;83.13;101817.50;1822229;77;21088;-56
2022/10/14 02:37:23;;;;;;;14.70;7.55;;;;;;;3.38;83.21;101815.28;1822144;79;21084;-57
2022/10/14 02:40:01;;;;;;;13.75;7.50;;;;;;;3.37;82.93;101813.96;1813493;78;21106;-56
2022/10/14 02:42:30;;;;;;;15.95;7.37;;;;;;;3.34;82.91;101820.03;1822846;78;21120;-52
2022/10/14 02:45:00;;;;;;;18.05;8.63;;;;;;;3.33;82.95;101812.20;1826465;78;21065;-57
2022/10/14 02:47:30;;;;;;;16.67;8.60;;;;;;;3.30;82.96;101813.02;1799304;79;21065;-56
2022/10/14 02:49:58;;;;;;;16.37;8.05;;;;;;;3.26;83.33;101820.37;1822581;79;21546;-57
2022/10/14 02:52:27;;;;;;;19.45;7.97;;;;;;;3.23;83.61;101815.16;1822442;79;21582;-55
2022/10/14 02:54:56;;;;;;;13.70;6.40;;;;;;;3.20;83.76;101821.64;1822247;78;21127;-55
2022/10/14 02:57:25;;;;;;;14.90;7.37;;;;;;;3.16;83.95;101814.66;1822402;79;21084;-56
2022/10/14 02:59:55;;;;;;;12.03;5.62;;;;;;;3.12;83.81;101821.98;1822396;79;21073;-54
2022/10/14 03:02:25;;;;;;;11.50;6.33;;;;;;;3.07;83.91;101819.34;1822524;78;21081;-54
2022/10/14 03:04:54;;;;;;;13.58;7.67;;;;;;;3.07;83.69;101822.81;1822402;77;21156;-54
2022/10/14 03:07:24;;;;;;;22.85;7.67;;;;;;;3.08;83.53;101827.17;1822325;78;21073;-54
2022/10/14 03:09:53;;;;;;;13.32;6.42;;;;;;;3.09;83.57;101831.94;1822567;79;21512;-55
2022/10/14 03:12:24;;;;;;;11.85;6.10;;;;;;;3.08;84.11;101835.39;1822283;79;21088;-55
2022/10/14 03:14:54;;;;;;;21.80;10.35;;;;;;;3.07;83.99;101826.72;1820766;78;21069;-53
2022/10/14 03:17:23;;;;;;;16.60;8.48;;;;;;;3.12;84.45;101826.77;1817446;79;21069;-57
2022/10/14 03:19:53;;;;;;;19.35;9.40;;;;;;;3.16;84.61;101828.98;1819784;79;21538;-58
2022/10/14 03:22:22;;;;;;;13.78;6.45;;;;;;;3.18;84.56;101835.93;1819788;79;21128;-56
2022/10/14 03:24:51;;;;;;;12.55;7.05;;;;;;;3.16;84.80;101827.68;1819959;79;21078;-57
2022/10/14 03:27:22;;;;;;;13.62;6.03;;;;;;;3.12;84.98;101834.98;1811468;78;21145;-56
2022/10/14 03:29:52;;;;;;;13.13;6.40;;;;;;;3.08;84.91;101830.19;1819688;79;21188;-54
2022/10/14 03:32:23;;;;;;;16.95;7.00;;;;;;;3.03;85.36;101827.55;1819306;78;21168;-58
2022/10/14 03:35:10;;;;;;;17.60;7.50;;;;;;;3.01;85.26;101826.67;1790168;79;21093;-57
2022/10/14 03:37:39;;;;;;;19.67;7.70;;;;;;;3.02;85.70;101827.09;1790254;80;21615;-58
2022/10/14 03:40:09;;;;;;;19.98;8.10;;;;;;;3.01;85.86;101831.88;1790253;80;21564;-58
2022/10/14 03:42:38;;;;;;;21.37;7.97;;;;;;;2.98;85.91;101834.44;1790148;80;21093;-63
2022/10/14 03:45:08;;;;;;;20.52;8.05;;;;;;;2.94;86.07;101830.06;1808527;78;21051;-62
2022/10/14 03:47:38;;;;;;;20.82;8.98;;;;;;;2.90;86.24;101834.80;1826012;78;21089;-62
2022/10/14 03:50:09;;;;;;;10.30;6.33;;;;;;;2.88;86.13;101841.28;1884912;75;21072;-59
2022/10/14 03:52:46;;;;;;;20.10;9.18;;;;;;;2.88;86.15;101841.72;1895448;76;21121;-59
2022/10/14 03:55:16;;;;;;;19.85;6.20;;;;;;;2.86;86.20;101836.50;1875268;75;21137;-60
2022/10/14 03:57:46;;;;;;;15.23;7.72;;;;;;;2.92;86.35;101836.98;1864188;76;21121;-56
2022/10/14 04:00:16;;;;;;;15.65;8.25;;;;;;;2.95;86.43;101840.94;1864022;77;21043;-54
2022/10/14 04:03:08;;;;;;;15.40;8.13;;;;;;;2.97;86.32;101835.31;1863477;77;21088;-59
2022/10/14 04:05:38;;;;;;;15.65;6.40;;;;;;;3.01;86.23;101834.48;1950023;71;21594;-62
2022/10/14 04:08:08;;;;;;;19.80;8.25;;;;;;;3.06;86.06;101838.00;1965618;72;21487;-58
2022/10/14 04:10:38;;;;;;;17.30;8.15;;;;;;;3.07;85.95;101836.27;1950805;73;21131;-61
2022/10/14 04:13:08;;;;;;;22.07;8.25;;;;;;;3.12;85.93;101842.80;1933034;74;21127;-60
2022/10/14 04:15:38;;;;;;;18.23;7.85;;;;;;;3.17;85.92;101846.32;1932880;74;21492;-59
2022/10/14 04:18:17;;;;;;;14.85;7.58;;;;;;;3.21;85.90;101846.78;1933027;73;21082;-60
2022/10/14 04:20:48;;;;;;;18.12;7.87;;;;;;;3.28;85.86;101843.38;1963436;73;21497;-59
2022/10/14 04:23:17;;;;;;;19.90;7.28;;;;;;;3.36;85.73;101843.47;1962319;73;20992;-57
2022/10/14 04:25:46;;;;;;;10.45;6.35;;;;;;;3.47;85.47;101850.50;1952624;73;21020;-60
2022/10/14 04:28:15;;;;;;;17.55;6.53;;;;;;;3.56;85.32;101841.00;1959388;73;21020;-59
2022/10/14 04:30:49;;;;;;;15.90;7.97;;;;;;;3.64;85.16;101841.52;1966445;73;21027;-59
2022/10/14 04:33:19;;;;;;;15.05;7.28;;;;;;;3.73;84.97;101839.41;1966218;73;21088;-45
2022/10/14 04:35:48;;;;;;;15.45;6.20;;;;;;;3.80;84.81;101838.59;1964661;73;21508;-46
2022/10/14 04:38:19;;;;;;;13.25;7.25;;;;;;;3.86;84.71;101839.06;1963753;73;21049;-45
2022/10/14 04:40:49;;;;;;;15.70;6.90;;;;;;;3.96;84.51;101847.80;1965979;73;21081;-47
2022/10/14 04:43:18;;;;;;;22.67;8.95;;;;;;;4.11;84.31;101840.50;1958684;73;21214;-45
2022/10/14 04:45:48;;;;;;;21.42;8.65;;;;;;;4.24;84.04;101837.08;1936082;73;21018;-45
2022/10/14 04:48:18;;;;;;;17.32;7.97;;;;;;;4.34;83.81;101844.09;1931963;73;21525;-47
2022/10/14 04:50:50;;;;;;;15.85;7.72;;;;;;;4.47;83.57;101846.32;1967398;73;21452;-44
2022/10/14 04:53:42;;;;;;;24.27;8.08;;;;;;;4.58;83.34;101847.23;1849619;76;21062;-47
2022/10/14 04:56:12;;;;;;;18.80;7.83;;;;;;;4.72;83.06;101847.70;1909447;73;21064;-56
2022/10/14 04:58:43;;;;;;;20.45;7.62;;;;;;;4.83;82.85;101851.20;1965528;73;21465;-59
2022/10/14 05:01:12;;;;;;;13.43;6.35;;;;;;;4.95;82.60;101853.85;1967022;73;21041;-58
2022/10/14 05:03:42;;;;;;;13.35;6.70;;;;;;;5.09;82.36;101855.20;1964667;73;21034;-54
2022/10/14 05:06:12;;;;;;;13.70;6.28;;;;;;;5.23;82.09;101857.81;1973445;73;21496;-58
2022/10/14 05:08:42;;;;;;;18.95;7.33;;;;;;;5.34;81.93;101854.77;1973320;72;21081;-59
2022/10/14 05:11:13;;;;;;;20.32;9.58;;;;;;;5.49;81.74;101859.56;1973754;73;21476;-57
2022/10/14 05:13:46;;;;;;;36.65;12.90;;;;;;;5.67;81.64;101856.95;1957914;72;21147;-58
2022/10/14 05:16:14;;;;;;;38.70;13.15;;;;;;;5.91;81.88;101863.88;1939228;73;21049;-57
2022/10/14 05:18:43;;;;;;;46.70;15.75;;;;;;;6.17;82.28;101865.61;1938961;74;21127;-57
2022/10/14 05:21:13;;;;;;;89.25;25.57;;;;;;;6.38;82.36;101865.96;1941185;73;21078;-54
2022/10/14 05:23:56;;;;;;;75.42;21.00;;;;;;;6.62;81.97;101861.09;1964625;73;21064;-55
2022/10/14 05:26:26;;;;;;;67.62;18.42;;;;;;;7.01;81.08;101864.78;1964408;73;21523;-56
2022/10/14 05:28:55;;;;;;;36.45;12.82;;;;;;;7.37;80.69;101865.42;1971950;73;21486;-57
2022/10/14 05:31:24;;;;;;;29.98;12.55;;;;;;;7.77;80.49;101863.78;1969364;73;21117;-57
2022/10/14 05:33:55;;;;;;;27.58;11.48;;;;;;;8.32;79.74;101859.27;1947767;73;21261;-53
2022/10/14 05:36:24;;;;;;;20.00;10.00;;;;;;;8.98;79.20;101864.11;1958847;73;21115;-55
2022/10/14 05:38:57;;;;;;;25.27;10.85;;;;;;;9.79;78.69;101856.25;1949739;73;21033;-52
2022/10/14 05:41:27;;;;;;;17.90;8.93;;;;;;;10.74;78.35;101856.14;1969397;73;21012;-56
2022/10/14 05:43:56;;;;;;;18.55;8.75;;;;;;;11.64;77.67;101851.38;1944958;73;21037;-56
2022/10/14 05:46:25;;;;;;;14.98;8.08;;;;;;;12.31;76.97;101854.88;1953368;73;21055;-57
2022/10/14 05:48:56;;;;;;;15.32;7.67;;;;;;;12.84;76.24;101852.88;1939085;74;21047;-55
2022/10/14 05:51:26;;;;;;;22.20;8.15;;;;;;;13.23;75.52;101846.39;1939180;74;21478;-47
2022/10/14 05:53:56;;;;;;;17.10;8.25;;;;;;;13.68;75.02;101851.08;1938330;74;21125;-46
2022/10/14 05:56:25;;;;;;;14.07;8.30;;;;;;;13.80;74.42;101847.16;1951203;73;21189;-49
2022/10/14 05:58:55;;;;;;;17.23;7.80;;;;;;;13.61;74.16;101842.94;1972004;73;21008;-49
2022/10/14 06:01:23;;;;;;;16.07;7.97;;;;;;;13.38;74.36;101849.88;1970982;73;21102;-56
2022/10/14 06:03:53;;;;;;;16.10;8.68;;;;;;;13.31;74.41;101845.70;1971761;73;21000;-57
2022/10/14 06:06:21;;;;;;;17.23;8.60;;;;;;;13.25;74.42;101845.88;1970124;73;21502;-58
2022/10/14 06:08:52;;;;;;;15.83;7.80;;;;;;;13.48;74.33;101846.02;1961589;73;21564;-59
2022/10/14 06:11:21;;;;;;;16.67;7.75;;;;;;;14.05;73.66;101855.08;1946448;73;21158;-56
2022/10/14 06:13:50;;;;;;;16.07;8.35;;;;;;;14.75;72.33;101860.04;1967384;73;21088;-56
2022/10/14 06:16:18;;;;;;;12.68;7.28;;;;;;;15.08;71.23;101862.30;1954022;73;21004;-58
2022/10/14 06:18:47;;;;;;;15.10;8.40;;;;;;;14.81;70.67;101854.48;1965305;73;21035;-61
2022/10/14 06:21:16;;;;;;;17.42;7.95;;;;;;;14.77;70.07;101852.89;1938933;74;21010;-61
2022/10/14 06:23:45;;;;;;;16.40;8.43;;;;;;;14.89;69.07;101859.52;1939008;74;21106;-58
2022/10/14 06:26:13;;;;;;;17.05;9.25;;;;;;;15.24;68.20;101852.80;1939016;74;21135;-57
2022/10/14 06:28:42;;;;;;;19.23;7.95;;;;;;;15.30;67.80;101855.66;1946368;73;21021;-63
2022/10/14 06:31:11;;;;;;;17.98;8.20;;;;;;;15.29;67.24;101849.50;1969245;73;21067;-62
2022/10/14 06:33:42;;;;;;;15.43;7.95;;;;;;;15.12;66.87;101851.95;1948961;73;21044;-62
2022/10/14 06:36:11;;;;;;;18.30;7.80;;;;;;;14.98;66.05;101853.85;1966691;73;21030;-62
2022/10/14 06:38:40;;;;;;;21.48;8.35;;;;;;;14.44;66.31;101862.05;1938945;74;21535;-54
2022/10/14 06:41:09;;;;;;;20.50;8.50;;;;;;;13.94;66.35;101853.28;1941411;73;21486;-53
2022/10/14 06:43:37;;;;;;;16.55;7.80;;;;;;;14.09;66.10;101851.39;1945058;73;21061;-57
2022/10/14 06:46:06;;;;;;;17.45;9.18;;;;;;;15.25;64.91;101851.84;1943655;73;21028;-57
2022/10/14 06:48:36;;;;;;;18.10;7.50;;;;;;;16.33;62.89;101854.75;1951697;73;21415;-58
2022/10/14 06:51:05;;;;;;;24.02;12.13;;;;;;;16.42;62.48;101844.18;1962903;73;21005;-59
2022/10/14 06:53:34;;;;;;;23.15;9.05;;;;;;;16.03;62.29;101841.06;1959559;73;21091;-59
2022/10/14 06:56:10;;;;;;;18.42;9.65;;;;;;;15.73;62.36;101840.13;1967869;73;21182;-60
2022/10/14 06:58:36;;;;;;;23.77;12.23;;;;;;;15.64;62.08;101844.50;1923083;73;21065;-53
2022/10/14 07:01:06;;;;;;;18.42;8.93;;;;;;;15.62;61.73;101845.00;1957023;73;21391;-53
2022/10/14 07:03:37;;;;;;;19.77;9.63;;;;;;;15.09;61.77;101845.44;1945507;73;21456;-60
2022/10/14 07:06:08;;;;;;;22.52;10.08;;;;;;;14.88;61.56;101841.39;1960584;72;21225;-50
2022/10/14 07:08:37;;;;;;;17.10;9.15;;;;;;;14.24;61.94;101846.89;1969397;72;21008;-56
2022/10/14 07:11:06;;;;;;;26.65;9.60;;;;;;;14.19;61.90;101846.19;1978385;72;21117;-56
2022/10/14 07:13:36;;;;;;;87.47;18.95;;;;;;;14.48;61.48;101844.25;1969619;72;21071;-57
2022/10/14 07:16:05;;;;;;;22.58;10.05;;;;;;;14.27;61.48;101845.46;1978470;72;21105;-58
2022/10/14 07:18:37;;;;;;;16.82;9.63;;;;;;;13.80;61.92;101845.38;1971018;72;21033;-58
2022/10/14 07:21:06;;;;;;;19.05;8.75;;;;;;;13.62;61.96;101839.39;1970598;72;21553;-57
2022/10/14 07:23:35;;;;;;;20.65;8.93;;;;;;;13.70;61.79;101838.66;1972529;72;21041;-57
2022/10/14 07:26:05;;;;;;;18.77;8.48;;;;;;;13.94;61.49;101842.69;1970445;72;21007;-58
2022/10/14 07:28:33;;;;;;;19.60;8.83;;;;;;;14.78;60.40;101836.07;1965325;72;21205;-56
2022/10/14 07:31:05;;;;;;;14.65;7.65;;;;;;;15.20;59.66;101837.94;1971256;72;21048;-62
2022/10/14 07:33:35;;;;;;;17.20;8.48;;;;;;;15.43;59.32;101829.86;1974718;72;21141;-56
2022/10/14 07:36:07;;;;;;;17.42;7.95;;;;;;;15.87;58.70;101833.37;1951037;73;21023;-58
2022/10/14 07:38:36;;;;;;;16.40;8.98;;;;;;;15.99;58.16;101836.80;1951029;72;21083;-53
2022/10/14 07:41:15;;;;;;;19.57;8.68;;;;;;;16.31;57.67;101824.73;1959875;72;21596;-53
2022/10/14 07:43:37;;;;;;;14.15;7.65;;;;;;;16.57;56.68;101819.53;1961251;72;20996;-55
2022/10/14 07:46:07;;;;;;;22.37;8.38;;;;;;;16.98;56.34;101818.03;1957071;72;21043;-58
2022/10/14 07:48:36;;;;;;;16.23;8.70;;;;;;;17.43;55.51;101813.63;1950922;73;21419;-58
2022/10/14 07:51:07;;;;;;;24.60;8.48;;;;;;;18.22;54.51;101820.63;1951014;73;21101;-61
2022/10/14 07:53:37;;;;;;;18.95;8.45;;;;;;;18.57;53.99;101815.63;1951050;73;21093;-61
2022/10/14 07:56:06;;;;;;;14.63;8.13;;;;;;;19.36;53.21;101807.55;1971332;72;21097;-61
2022/10/14 07:58:34;;;;;;;16.48;8.00;;;;;;;20.37;51.69;101809.02;1985626;72;20999;-61
2022/10/14 08:01:03;;;;;;;14.20;6.92;;;;;;;21.05;50.44;101802.84;1985521;72;21117;-64
2022/10/14 08:03:34;;;;;;;21.42;8.23;;;;;;;21.30;49.49;101799.85;1984931;72;21554;-64
2022/10/14 08:06:04;;;;;;;13.30;7.10;;;;;;;21.31;48.45;101796.23;1978982;72;21016;-61
2022/10/14 08:08:33;;;;;;;15.20;7.80;;;;;;;21.37;47.78;101793.13;1939069;74;21061;-66
2022/10/14 08:11:04;;;;;;;19.12;7.85;;;;;;;21.67;47.14;101794.69;1939105;74;21029;-64
2022/10/14 08:13:38;;;;;;;13.98;6.62;;;;;;;22.22;46.43;101790.78;1938911;74;21060;-68
2022/10/14 08:16:19;;;;;;;15.48;7.12;;;;;;;22.68;45.61;101794.18;1945906;73;21110;-65
2022/10/14 08:18:48;;;;;;;13.45;7.55;;;;;;;22.68;45.12;101789.30;1964875;73;21034;-64
2022/10/14 08:21:18;;;;;;;19.65;7.55;;;;;;;23.00;44.78;101782.89;1973601;73;21532;-69
2022/10/14 08:23:47;;;;;;;14.85;7.17;;;;;;;23.23;44.42;101779.82;1973578;73;21480;-66
2022/10/14 08:26:25;;;;;;;16.17;7.75;;;;;;;23.13;43.87;101778.83;1970763;73;21531;-64
2022/10/14 08:28:54;;;;;;;21.57;7.92;;;;;;;23.17;43.28;101780.80;1965223;72;21020;-61
2022/10/14 08:31:28;;;;;;;14.38;8.13;;;;;;;23.38;42.89;101771.06;1962963;72;21123;-61
2022/10/14 08:33:53;;;;;;;13.98;7.60;;;;;;;23.69;42.50;101776.76;1956303;73;21118;-56
2022/10/14 08:36:22;;;;;;;19.00;7.80;;;;;;;23.53;42.49;101777.58;1967957;73;21097;-56
2022/10/14 08:38:53;;;;;;;14.85;7.05;;;;;;;23.75;42.33;101772.73;1967218;73;21032;-57
2022/10/14 08:41:24;;;;;;;13.00;6.78;;;;;;;23.99;41.65;101771.30;1953555;73;21138;-57
2022/10/14 08:43:59;;;;;;;17.65;7.17;;;;;;;23.83;40.74;101769.84;1961601;72;21024;-56
2022/10/14 08:46:33;;;;;;;15.18;6.92;;;;;;;24.13;40.60;101760.30;1964087;72;21012;-57
2022/10/14 08:49:30;;;;;;;14.15;7.20;;;;;;;24.57;40.12;101762.58;1972762;72;21470;-53
2022/10/14 08:52:02;;;;;;;12.70;6.37;;;;;;;24.71;39.45;101756.54;1973680;73;21052;-52
2022/10/14 08:54:34;;;;;;;15.68;7.15;;;;;;;24.63;39.32;101751.80;1962221;72;21443;-44
2022/10/14 08:57:06;;;;;;;16.00;6.70;;;;;;;24.36;39.18;101760.27;1951468;72;21059;-46
2022/10/14 08:59:37;;;;;;;17.25;7.60;;;;;;;24.75;38.90;101749.91;1950877;73;21025;-47
2022/10/14 09:02:17;;;;;;;12.93;6.35;;;;;;;23.96;39.26;101744.64;1968527;72;21136;-46
2022/10/14 09:04:46;;;;;;;17.23;8.03;;;;;;;24.08;39.24;101747.70;1938986;74;21033;-46
2022/10/14 09:07:17;;;;;;;17.57;9.00;;;;;;;24.03;38.74;101743.17;1939005;74;21053;-49
2022/10/14 09:09:49;;;;;;;17.37;8.30;;;;;;;24.31;38.05;101743.62;1939096;74;21105;-49
2022/10/14 09:12:23;;;;;;;19.73;8.80;;;;;;;24.52;37.52;101740.56;1957812;73;21079;-49
2022/10/14 09:15:17;;;;;;;16.32;7.50;;;;;;;24.63;37.39;101731.60;1952037;73;21499;-47
2022/10/14 09:17:51;;;;;;;19.92;8.30;;;;;;;24.67;37.17;101733.05;1939256;73;21042;-46
2022/10/14 09:20:23;;;;;;;20.35;8.53;;;;;;;24.88;36.99;101730.88;1936356;74;20999;-48
2022/10/14 09:22:58;;;;;;;13.13;7.03;;;;;;;25.31;36.71;101731.31;1939154;73;21562;-46
2022/10/14 09:25:28;;;;;;;12.25;7.00;;;;;;;25.52;36.39;101728.09;1948109;73;21079;-45
2022/10/14 09:27:57;;;;;;;21.40;8.15;;;;;;;25.57;36.08;101733.09;1970154;73;21079;-47
2022/10/14 09:30:27;;;;;;;16.57;7.10;;;;;;;25.30;35.85;101722.86;1971899;73;20992;-49
2022/10/14 09:32:58;;;;;;;17.10;7.83;;;;;;;25.39;36.22;101726.95;1972742;73;21103;-46
2022/10/14 09:35:29;;;;;;;21.48;7.28;;;;;;;25.55;35.96;101724.28;1973585;73;21084;-50
2022/10/14 09:37:58;;;;;;;15.83;7.42;;;;;;;25.42;35.32;101719.95;1970237;73;21102;-48
2022/10/14 09:40:39;;;;;;;13.78;7.35;;;;;;;25.17;35.18;101718.98;1972153;73;21037;-47
2022/10/14 09:43:10;;;;;;;16.07;7.87;;;;;;;24.99;34.94;101714.19;1972146;73;21520;-49
2022/10/14 09:46:00;;;;;;;13.85;7.12;;;;;;;24.92;35.35;101713.00;1972947;73;21013;-48
2022/10/14 09:48:49;;;;;;;15.83;6.37;;;;;;;25.30;35.32;101715.61;1956149;73;20999;-48
2022/10/14 09:51:29;;;;;;;13.20;6.83;;;;;;;25.39;34.96;101708.08;1939077;74;21018;-47
2022/10/14 09:54:01;;;;;;;12.25;6.08;;;;;;;25.14;35.23;101709.80;1938962;74;21123;-49
2022/10/14 09:56:33;;;;;;;12.65;6.42;;;;;;;25.31;35.38;101699.81;1957414;73;21036;-47
2022/10/14 09:59:04;;;;;;;15.78;6.47;;;;;;;25.50;35.45;101703.61;1971992;73;21024;-47
2022/10/14 10:01:36;;;;;;;14.80;6.70;;;;;;;25.96;35.25;101697.72;1971913;73;21008;-50
2022/10/14 10:04:33;;;;;;;16.07;7.33;;;;;;;25.87;34.81;101698.50;1971836;73;20996;-49
2022/10/14 10:07:04;;;;;;;12.80;6.37;;;;;;;26.05;34.87;101693.84;1951165;73;21044;-49
2022/10/14 10:09:34;;;;;;;11.78;5.35;;;;;;;26.23;34.75;101695.36;1937259;74;21522;-48
2022/10/14 10:12:05;;;;;;;13.75;6.28;;;;;;;26.36;34.58;101689.22;1939073;74;21457;-48
2022/10/14 10:14:34;;;;;;;15.25;6.42;;;;;;;26.37;34.25;101681.46;1934771;73;21600;-50
2022/10/14 10:17:13;;;;;;;14.68;7.00;;;;;;;26.42;34.25;101676.50;1941100;73;21333;-49
2022/10/14 10:19:47;;;;;;;13.55;7.35;;;;;;;26.53;33.84;101682.27;1939205;74;21504;-46
2022/10/14 10:22:21;;;;;;;18.65;8.38;;;;;;;26.24;33.89;101678.19;1939170;73;21044;-47
2022/10/14 10:25:11;;;;;;;23.15;9.80;;;;;;;26.18;33.97;101679.09;1939182;74;21064;-47
2022/10/14 10:27:45;;;;;;;19.80;9.03;;;;;;;26.19;33.96;101674.06;1941286;73;21099;-50
2022/10/14 10:30:19;;;;;;;21.40;9.58;;;;;;;25.94;33.49;101672.72;1939079;74;21575;-46
2022/10/14 10:33:00;;;;;;;21.12;9.98;;;;;;;25.82;33.78;101672.42;1939052;74;21024;-49
2022/10/14 10:35:48;;;;;;;35.50;15.40;;;;;;;25.72;33.86;101673.75;1939115;73;21103;-46
2022/10/14 10:38:23;;;;;;;36.33;16.23;;;;;;;24.97;34.21;101662.28;1939933;73;21497;-48
2022/10/14 10:41:22;;;;;;;20.30;9.58;;;;;;;24.92;34.39;101657.77;1939150;74;21046;-47
2022/10/14 10:43:53;;;;;;;14.40;6.83;;;;;;;25.13;34.37;101654.22;1938199;74;21027;-47
2022/10/14 10:46:31;;;;;;;16.35;8.28;;;;;;;24.84;34.35;101653.52;1971940;73;21146;-50
2022/10/14 10:49:11;;;;;;;17.48;8.15;;;;;;;24.49;34.74;101664.05;1950347;73;21004;-48
2022/10/14 10:52:10;;;;;;;18.15;6.83;;;;;;;23.28;35.72;101657.23;1938672;73;21055;-49
2022/10/14 10:54:52;;;;;;;17.32;6.65;;;;;;;23.09;36.24;101651.95;1938942;74;21516;-49
2022/10/14 10:57:42;;;;;;;13.20;6.15;;;;;;;22.81;35.82;101646.95;1970278;73;21061;-46
2022/10/14 11:00:19;;;;;;;14.73;6.47;;;;;;;22.70;35.94;101635.22;1973562;73;21018;-45
2022/10/14 11:03:17;;;;;;;14.85;7.15;;;;;;;22.55;36.15;101636.37;1973435;72;21025;-51
2022/10/14 11:06:04;;;;;;;18.77;6.58;;;;;;;22.73;36.00;101634.97;1970241;72;21480;-47
2022/10/14 11:14:38;;;;;;;11.80;5.00;;;;;;;23.71;35.55;101622.89;1986287;72;21052;-48
2022/10/14 11:17:26;;;;;;;8.60;4.17;;;;;;;23.45;35.30;101625.83;1985012;72;21020;-47
2022/10/14 11:19:57;;;;;;;13.43;3.27;;;;;;;23.27;35.64;101624.61;1985448;72;21059;-50
2022/10/14 11:22:49;;;;;;;10.40;4.45;;;;;;;23.01;36.00;101622.59;1984681;72;21019;-45
2022/10/14 11:25:43;;;;;;;11.85;4.80;;;;;;;22.74;36.17;101623.27;1985556;72;21083;-45
2022/10/14 11:28:12;;;;;;;;;;;;;;;22.30;36.27;101624.81;1981834;72;21502;-47
2022/10/14 11:30:43;;;;;;;16.40;5.83;;;;;;;22.03;37.02;101625.48;1970990;72;20106;-46
2022/10/14 11:33:18;;;;;;;13.72;5.92;;;;;;;21.87;37.30;101623.91;1950834;73;21031;-50
2022/10/14 11:36:06;;;;;;;20.17;5.40;;;;;;;21.60;37.63;101622.76;1950500;73;21474;-46
2022/10/14 11:38:53;;;;;;;9.53;3.85;;;;;;;21.28;38.01;101620.48;1963862;72;21581;-48
2022/10/14 11:41:44;;;;;;;11.10;5.33;;;;;;;20.85;38.53;101618.12;1973475;72;21060;-46
2022/10/14 11:44:34;;;;;;;11.68;5.47;;;;;;;20.43;39.13;101608.84;1975549;72;21020;-54
2022/10/14 11:47:24;;;;;;;9.43;4.40;;;;;;;20.01;39.51;101611.20;1976713;72;21454;-51
2022/10/14 11:50:14;;;;;;;10.90;3.75;;;;;;;19.64;39.84;101603.73;1952879;72;21027;-50
2022/10/14 11:52:58;;;;;;;10.55;4.20;;;;;;;19.43;40.22;101614.42;1950959;73;21020;-49
2022/10/14 11:55:29;;;;;;;9.38;4.30;;;;;;;19.27;40.46;101615.39;1950497;72;21529;-47